sensor_id;sensor_type;location;lat;lon;timestamp;P1;durP1;ratioP1;P2;durP2;ratioP2
8986;SDS011;4529;51.360;12.474;2023-08-20T00:01:46;10.37;;;6.73;;
8986;SDS011;4529;51.360;12.474;2023-08-20T00:06:50;10.00;;;6.83;;
8986;SDS011;4529;51.360;12.474;2023-08-20T00:11:54;7.90;;;6.77;;
8986;SDS011;4529;51.360;12.474;2023-08-20T00:16:58;9.33;;;6.80;;
8986;SDS011;4529;51.360;12.474;2023-08-20T00:22:02;7.83;;;6.90;;
8986;SDS011;4529;51.360;12.474;2023-08-20T00:27:06;10.37;;;7.00;;
8986;SDS011;4529;51.360;12.474;2023-08-20T00:32:10;10.83;;;7.13;;
8986;SDS011;4529;51.360;12.474;2023-08-20T00:37:13;9.23;;;7.43;;
8986;SDS011;4529;51.360;12.474;2023-08-20T00:42:17;7.90;;;7.10;;
8986;SDS011;4529;51.360;12.474;2023-08-20T00:47:20;7.87;;;7.17;;
8986;SDS011;4529;51.360;12.474;2023-08-20T00:52:24;11.93;;;7.13;;
8986;SDS011;4529;51.360;12.474;2023-08-20T00:57:27;8.30;;;7.20;;
8986;SDS011;4529;51.360;12.474;2023-08-20T01:02:31;9.37;;;7.13;;
8986;SDS011;4529;51.360;12.474;2023-08-20T01:13:05;8.10;;;7.30;;
8986;SDS011;4529;51.360;12.474;2023-08-20T01:18:09;9.30;;;7.43;;
8986;SDS011;4529;51.360;12.474;2023-08-20T01:28:38;9.13;;;7.30;;
8986;SDS011;4529;51.360;12.474;2023-08-20T01:33:42;8.63;;;6.93;;
8986;SDS011;4529;51.360;12.474;2023-08-20T01:38:47;8.57;;;7.50;;
8986;SDS011;4529;51.360;12.474;2023-08-20T01:43:51;8.80;;;7.93;;
8986;SDS011;4529;51.360;12.474;2023-08-20T01:48:55;11.57;;;8.47;;
8986;SDS011;4529;51.360;12.474;2023-08-20T01:53:58;10.87;;;9.30;;
8986;SDS011;4529;51.360;12.474;2023-08-20T01:59:02;10.53;;;9.47;;
8986;SDS011;4529;51.360;12.474;2023-08-20T02:04:05;11.57;;;10.47;;
8986;SDS011;4529;51.360;12.474;2023-08-20T02:09:09;13.27;;;10.77;;
8986;SDS011;4529;51.360;12.474;2023-08-20T02:14:13;12.43;;;10.60;;
8986;SDS011;4529;51.360;12.474;2023-08-20T02:19:17;11.90;;;10.70;;
8986;SDS011;4529;51.360;12.474;2023-08-20T02:24:21;13.43;;;11.10;;
8986;SDS011;4529;51.360;12.474;2023-08-20T02:29:25;13.07;;;11.70;;
8986;SDS011;4529;51.360;12.474;2023-08-20T02:34:28;13.63;;;11.87;;
8986;SDS011;4529;51.360;12.474;2023-08-20T02:39:32;13.43;;;12.03;;
8986;SDS011;4529;51.360;12.474;2023-08-20T02:44:35;13.20;;;11.80;;
8986;SDS011;4529;51.360;12.474;2023-08-20T02:49:39;14.93;;;12.73;;
8986;SDS011;4529;51.360;12.474;2023-08-20T02:54:42;15.17;;;13.57;;
8986;SDS011;4529;51.360;12.474;2023-08-20T02:59:46;15.00;;;13.50;;
8986;SDS011;4529;51.360;12.474;2023-08-20T03:04:50;15.37;;;13.97;;
8986;SDS011;4529;51.360;12.474;2023-08-20T03:09:53;15.60;;;14.13;;
8986;SDS011;4529;51.360;12.474;2023-08-20T03:14:59;15.60;;;13.90;;
8986;SDS011;4529;51.360;12.474;2023-08-20T03:20:00;15.67;;;14.07;;
8986;SDS011;4529;51.360;12.474;2023-08-20T03:25:04;15.40;;;13.90;;
8986;SDS011;4529;51.360;12.474;2023-08-20T03:30:08;16.13;;;14.53;;
8986;SDS011;4529;51.360;12.474;2023-08-20T03:35:11;16.13;;;14.40;;
8986;SDS011;4529;51.360;12.474;2023-08-20T03:40:16;16.97;;;15.27;;
8986;SDS011;4529;51.360;12.474;2023-08-20T03:45:20;16.67;;;14.93;;
8986;SDS011;4529;51.360;12.474;2023-08-20T03:50:24;16.13;;;14.53;;
8986;SDS011;4529;51.360;12.474;2023-08-20T03:55:27;16.97;;;15.00;;
8986;SDS011;4529;51.360;12.474;2023-08-20T04:00:31;16.77;;;14.93;;
8986;SDS011;4529;51.360;12.474;2023-08-20T04:05:37;16.23;;;14.70;;
8986;SDS011;4529;51.360;12.474;2023-08-20T04:10:44;16.47;;;14.87;;
8986;SDS011;4529;51.360;12.474;2023-08-20T04:15:47;17.10;;;15.47;;
8986;SDS011;4529;51.360;12.474;2023-08-20T04:20:51;18.10;;;16.27;;
8986;SDS011;4529;51.360;12.474;2023-08-20T04:25:59;19.00;;;16.93;;
8986;SDS011;4529;51.360;12.474;2023-08-20T04:31:04;20.33;;;17.80;;
8986;SDS011;4529;51.360;12.474;2023-08-20T04:36:07;18.53;;;16.73;;
8986;SDS011;4529;51.360;12.474;2023-08-20T04:41:11;19.43;;;17.37;;
8986;SDS011;4529;51.360;12.474;2023-08-20T04:46:14;20.13;;;17.97;;
8986;SDS011;4529;51.360;12.474;2023-08-20T04:51:17;21.10;;;17.87;;
8986;SDS011;4529;51.360;12.474;2023-08-20T04:56:21;20.53;;;18.33;;
8986;SDS011;4529;51.360;12.474;2023-08-20T05:01:24;21.13;;;18.97;;
8986;SDS011;4529;51.360;12.474;2023-08-20T05:06:29;21.03;;;18.93;;
8986;SDS011;4529;51.360;12.474;2023-08-20T05:11:33;21.00;;;18.87;;
8986;SDS011;4529;51.360;12.474;2023-08-20T05:16:36;22.13;;;19.80;;
8986;SDS011;4529;51.360;12.474;2023-08-20T05:21:40;22.57;;;20.17;;
8986;SDS011;4529;51.360;12.474;2023-08-20T05:26:43;22.70;;;19.90;;
8986;SDS011;4529;51.360;12.474;2023-08-20T05:31:47;25.63;;;21.27;;
8986;SDS011;4529;51.360;12.474;2023-08-20T05:36:50;23.53;;;20.50;;
8986;SDS011;4529;51.360;12.474;2023-08-20T05:41:54;21.73;;;19.40;;
8986;SDS011;4529;51.360;12.474;2023-08-20T05:46:58;22.40;;;19.87;;
8986;SDS011;4529;51.360;12.474;2023-08-20T05:52:02;23.43;;;20.17;;
8986;SDS011;4529;51.360;12.474;2023-08-20T05:57:06;22.77;;;20.37;;
8986;SDS011;4529;51.360;12.474;2023-08-20T06:02:09;21.87;;;19.33;;
8986;SDS011;4529;51.360;12.474;2023-08-20T06:07:13;22.50;;;19.80;;
8986;SDS011;4529;51.360;12.474;2023-08-20T06:12:16;22.90;;;19.83;;
8986;SDS011;4529;51.360;12.474;2023-08-20T06:17:20;25.17;;;20.00;;
8986;SDS011;4529;51.360;12.474;2023-08-20T06:22:23;21.63;;;18.93;;
8986;SDS011;4529;51.360;12.474;2023-08-20T06:27:27;20.43;;;17.77;;
8986;SDS011;4529;51.360;12.474;2023-08-20T06:32:32;19.47;;;17.47;;
8986;SDS011;4529;51.360;12.474;2023-08-20T06:37:35;17.90;;;16.00;;
8986;SDS011;4529;51.360;12.474;2023-08-20T06:42:39;17.83;;;15.97;;
8986;SDS011;4529;51.360;12.474;2023-08-20T06:47:43;20.10;;;14.77;;
8986;SDS011;4529;51.360;12.474;2023-08-20T06:52:46;15.53;;;13.97;;
8986;SDS011;4529;51.360;12.474;2023-08-20T06:57:50;16.73;;;14.83;;
8986;SDS011;4529;51.360;12.474;2023-08-20T07:02:53;14.37;;;12.97;;
8986;SDS011;4529;51.360;12.474;2023-08-20T07:07:57;14.60;;;13.23;;
8986;SDS011;4529;51.360;12.474;2023-08-20T07:13:00;13.77;;;12.37;;
8986;SDS011;4529;51.360;12.474;2023-08-20T07:18:04;14.30;;;12.80;;
8986;SDS011;4529;51.360;12.474;2023-08-20T07:23:09;13.60;;;12.30;;
8986;SDS011;4529;51.360;12.474;2023-08-20T07:28:12;13.40;;;12.10;;
8986;SDS011;4529;51.360;12.474;2023-08-20T07:33:15;14.13;;;12.30;;
8986;SDS011;4529;51.360;12.474;2023-08-20T07:38:19;13.70;;;12.30;;
8986;SDS011;4529;51.360;12.474;2023-08-20T07:43:24;12.03;;;11.00;;
8986;SDS011;4529;51.360;12.474;2023-08-20T07:48:27;12.13;;;10.70;;
8986;SDS011;4529;51.360;12.474;2023-08-20T07:53:31;9.50;;;8.60;;
8986;SDS011;4529;51.360;12.474;2023-08-20T07:58:35;9.43;;;8.53;;
8986;SDS011;4529;51.360;12.474;2023-08-20T08:03:39;7.77;;;6.97;;
8986;SDS011;4529;51.360;12.474;2023-08-20T08:08:42;7.07;;;6.43;;
8986;SDS011;4529;51.360;12.474;2023-08-20T08:13:46;6.53;;;5.87;;
8986;SDS011;4529;51.360;12.474;2023-08-20T08:18:49;6.23;;;5.73;;
8986;SDS011;4529;51.360;12.474;2023-08-20T08:23:53;5.93;;;5.20;;
8986;SDS011;4529;51.360;12.474;2023-08-20T08:28:56;6.07;;;5.57;;
8986;SDS011;4529;51.360;12.474;2023-08-20T08:34:00;5.73;;;5.23;;
8986;SDS011;4529;51.360;12.474;2023-08-20T08:39:06;7.17;;;6.57;;
8986;SDS011;4529;51.360;12.474;2023-08-20T08:44:11;6.63;;;6.03;;
8986;SDS011;4529;51.360;12.474;2023-08-20T08:49:15;8.27;;;5.67;;
8986;SDS011;4529;51.360;12.474;2023-08-20T08:54:25;7.17;;;6.57;;
8986;SDS011;4529;51.360;12.474;2023-08-20T08:59:29;6.87;;;6.33;;
8986;SDS011;4529;51.360;12.474;2023-08-20T09:04:33;7.10;;;6.40;;
8986;SDS011;4529;51.360;12.474;2023-08-20T09:09:37;7.40;;;6.63;;
8986;SDS011;4529;51.360;12.474;2023-08-20T09:14:48;6.93;;;6.33;;
8986;SDS011;4529;51.360;12.474;2023-08-20T09:19:51;6.93;;;6.03;;
8986;SDS011;4529;51.360;12.474;2023-08-20T09:25:00;7.03;;;6.27;;
8986;SDS011;4529;51.360;12.474;2023-08-20T09:30:04;7.20;;;6.43;;
8986;SDS011;4529;51.360;12.474;2023-08-20T09:35:17;6.83;;;6.23;;
8986;SDS011;4529;51.360;12.474;2023-08-20T09:40:11;7.00;;;6.40;;
8986;SDS011;4529;51.360;12.474;2023-08-20T09:45:15;6.87;;;6.27;;
8986;SDS011;4529;51.360;12.474;2023-08-20T09:50:18;6.93;;;6.33;;
8986;SDS011;4529;51.360;12.474;2023-08-20T09:55:22;7.13;;;6.53;;
8986;SDS011;4529;51.360;12.474;2023-08-20T10:00:25;7.00;;;6.40;;
8986;SDS011;4529;51.360;12.474;2023-08-20T10:05:29;10.00;;;7.63;;
8986;SDS011;4529;51.360;12.474;2023-08-20T10:10:32;7.60;;;6.80;;
8986;SDS011;4529;51.360;12.474;2023-08-20T10:15:36;15.97;;;7.57;;
8986;SDS011;4529;51.360;12.474;2023-08-20T10:20:40;13.07;;;7.67;;
8986;SDS011;4529;51.360;12.474;2023-08-20T10:25:43;7.57;;;6.37;;
8986;SDS011;4529;51.360;12.474;2023-08-20T10:31:02;6.80;;;6.20;;
8986;SDS011;4529;51.360;12.474;2023-08-20T10:36:13;6.70;;;6.10;;
8986;SDS011;4529;51.360;12.474;2023-08-20T10:41:13;6.73;;;6.20;;
8986;SDS011;4529;51.360;12.474;2023-08-20T10:46:17;6.83;;;6.00;;
8986;SDS011;4529;51.360;12.474;2023-08-20T10:51:26;6.53;;;5.83;;
8986;SDS011;4529;51.360;12.474;2023-08-20T11:01:58;6.63;;;6.00;;
8986;SDS011;4529;51.360;12.474;2023-08-20T11:07:02;6.50;;;5.90;;
8986;SDS011;4529;51.360;12.474;2023-08-20T11:12:06;6.67;;;6.07;;
8986;SDS011;4529;51.360;12.474;2023-08-20T11:17:10;5.67;;;5.27;;
8986;SDS011;4529;51.360;12.474;2023-08-20T11:22:14;6.40;;;5.90;;
8986;SDS011;4529;51.360;12.474;2023-08-20T11:27:18;5.93;;;5.53;;
8986;SDS011;4529;51.360;12.474;2023-08-20T11:32:25;6.30;;;5.70;;
8986;SDS011;4529;51.360;12.474;2023-08-20T11:37:28;6.43;;;5.93;;
8986;SDS011;4529;51.360;12.474;2023-08-20T11:42:32;6.50;;;5.90;;
8986;SDS011;4529;51.360;12.474;2023-08-20T11:47:41;6.60;;;6.00;;
8986;SDS011;4529;51.360;12.474;2023-08-20T11:52:42;6.50;;;5.90;;
8986;SDS011;4529;51.360;12.474;2023-08-20T11:57:49;6.30;;;5.70;;
8986;SDS011;4529;51.360;12.474;2023-08-20T12:02:51;6.47;;;5.90;;
8986;SDS011;4529;51.360;12.474;2023-08-20T12:08:02;6.57;;;6.07;;
8986;SDS011;4529;51.360;12.474;2023-08-20T12:13:05;6.53;;;6.03;;
8986;SDS011;4529;51.360;12.474;2023-08-20T12:18:08;6.70;;;6.10;;
8986;SDS011;4529;51.360;12.474;2023-08-20T12:23:11;6.50;;;5.93;;
8986;SDS011;4529;51.360;12.474;2023-08-20T12:28:15;6.50;;;5.90;;
8986;SDS011;4529;51.360;12.474;2023-08-20T12:33:18;6.37;;;5.87;;
8986;SDS011;4529;51.360;12.474;2023-08-20T12:38:22;6.20;;;5.63;;
8986;SDS011;4529;51.360;12.474;2023-08-20T12:43:25;6.47;;;5.92;;
8986;SDS011;4529;51.360;12.474;2023-08-20T12:48:29;6.90;;;5.93;;
8986;SDS011;4529;51.360;12.474;2023-08-20T12:53:32;6.78;;;6.08;;
8986;SDS011;4529;51.360;12.474;2023-08-20T12:58:36;6.80;;;6.27;;
8986;SDS011;4529;51.360;12.474;2023-08-20T13:03:39;6.95;;;6.10;;
8986;SDS011;4529;51.360;12.474;2023-08-20T13:08:43;7.00;;;6.33;;
8986;SDS011;4529;51.360;12.474;2023-08-20T13:13:47;7.30;;;6.40;;
8986;SDS011;4529;51.360;12.474;2023-08-20T13:18:50;7.80;;;7.05;;
8986;SDS011;4529;51.360;12.474;2023-08-20T13:23:55;9.23;;;6.87;;
8986;SDS011;4529;51.360;12.474;2023-08-20T13:28:59;7.30;;;6.70;;
8986;SDS011;4529;51.360;12.474;2023-08-20T13:34:03;7.23;;;6.63;;
8986;SDS011;4529;51.360;12.474;2023-08-20T13:39:07;7.58;;;6.97;;
8986;SDS011;4529;51.360;12.474;2023-08-20T13:44:10;7.87;;;7.10;;
8986;SDS011;4529;51.360;12.474;2023-08-20T13:49:13;9.53;;;7.07;;
8986;SDS011;4529;51.360;12.474;2023-08-20T13:54:17;7.53;;;6.93;;
8986;SDS011;4529;51.360;12.474;2023-08-20T13:59:20;7.73;;;7.10;;
8986;SDS011;4529;51.360;12.474;2023-08-20T14:04:25;7.70;;;7.10;;
8986;SDS011;4529;51.360;12.474;2023-08-20T14:09:29;8.17;;;7.20;;
8986;SDS011;4529;51.360;12.474;2023-08-20T14:14:33;10.55;;;7.42;;
8986;SDS011;4529;51.360;12.474;2023-08-20T14:19:37;8.03;;;7.33;;
8986;SDS011;4529;51.360;12.474;2023-08-20T14:24:40;7.63;;;6.93;;
8986;SDS011;4529;51.360;12.474;2023-08-20T14:29:44;7.47;;;6.90;;
8986;SDS011;4529;51.360;12.474;2023-08-20T14:34:47;7.23;;;6.57;;
8986;SDS011;4529;51.360;12.474;2023-08-20T14:39:51;7.65;;;6.95;;
8986;SDS011;4529;51.360;12.474;2023-08-20T14:44:54;7.77;;;7.10;;
8986;SDS011;4529;51.360;12.474;2023-08-20T14:49:58;7.72;;;7.12;;
8986;SDS011;4529;51.360;12.474;2023-08-20T14:55:01;8.20;;;7.00;;
8986;SDS011;4529;51.360;12.474;2023-08-20T15:00:05;7.55;;;6.58;;
8986;SDS011;4529;51.360;12.474;2023-08-20T15:05:09;7.73;;;7.07;;
8986;SDS011;4529;51.360;12.474;2023-08-20T15:10:12;7.77;;;7.07;;
8986;SDS011;4529;51.360;12.474;2023-08-20T15:15:15;7.73;;;6.90;;
8986;SDS011;4529;51.360;12.474;2023-08-20T15:20:19;7.50;;;6.80;;
8986;SDS011;4529;51.360;12.474;2023-08-20T15:25:22;7.10;;;6.53;;
8986;SDS011;4529;51.360;12.474;2023-08-20T15:30:26;7.13;;;6.53;;
8986;SDS011;4529;51.360;12.474;2023-08-20T15:35:30;6.90;;;6.30;;
8986;SDS011;4529;51.360;12.474;2023-08-20T15:40:35;7.30;;;6.57;;
8986;SDS011;4529;51.360;12.474;2023-08-20T15:45:39;7.13;;;6.43;;
8986;SDS011;4529;51.360;12.474;2023-08-20T15:50:42;9.17;;;6.80;;
8986;SDS011;4529;51.360;12.474;2023-08-20T15:55:46;6.92;;;6.37;;
8986;SDS011;4529;51.360;12.474;2023-08-20T16:00:49;6.73;;;6.20;;
8986;SDS011;4529;51.360;12.474;2023-08-20T16:05:53;6.83;;;6.27;;
8986;SDS011;4529;51.360;12.474;2023-08-20T16:10:56;7.50;;;6.90;;
8986;SDS011;4529;51.360;12.474;2023-08-20T16:16:00;8.97;;;6.60;;
8986;SDS011;4529;51.360;12.474;2023-08-20T16:21:03;7.17;;;6.50;;
8986;SDS011;4529;51.360;12.474;2023-08-20T16:26:06;7.70;;;6.90;;
8986;SDS011;4529;51.360;12.474;2023-08-20T16:31:10;6.83;;;6.33;;
8986;SDS011;4529;51.360;12.474;2023-08-20T16:36:13;7.50;;;6.80;;
8986;SDS011;4529;51.360;12.474;2023-08-20T16:41:17;8.40;;;7.17;;
8986;SDS011;4529;51.360;12.474;2023-08-20T16:46:20;7.00;;;6.50;;
8986;SDS011;4529;51.360;12.474;2023-08-20T16:51:24;7.30;;;6.70;;
8986;SDS011;4529;51.360;12.474;2023-08-20T16:56:27;7.10;;;6.40;;
8986;SDS011;4529;51.360;12.474;2023-08-20T17:01:31;11.77;;;8.03;;
8986;SDS011;4529;51.360;12.474;2023-08-20T17:06:34;9.20;;;7.53;;
8986;SDS011;4529;51.360;12.474;2023-08-20T17:11:38;11.40;;;7.77;;
8986;SDS011;4529;51.360;12.474;2023-08-20T17:16:41;10.57;;;7.60;;
8986;SDS011;4529;51.360;12.474;2023-08-20T17:21:45;9.03;;;7.43;;
8986;SDS011;4529;51.360;12.474;2023-08-20T17:26:48;7.67;;;7.00;;
8986;SDS011;4529;51.360;12.474;2023-08-20T17:31:51;8.00;;;7.10;;
8986;SDS011;4529;51.360;12.474;2023-08-20T17:36:55;7.77;;;7.07;;
8986;SDS011;4529;51.360;12.474;2023-08-20T17:41:58;7.50;;;6.80;;
8986;SDS011;4529;51.360;12.474;2023-08-20T17:47:02;7.03;;;6.43;;
8986;SDS011;4529;51.360;12.474;2023-08-20T17:52:05;7.17;;;6.57;;
8986;SDS011;4529;51.360;12.474;2023-08-20T17:57:09;7.03;;;6.43;;
8986;SDS011;4529;51.360;12.474;2023-08-20T18:02:12;7.23;;;6.60;;
8986;SDS011;4529;51.360;12.474;2023-08-20T18:07:16;6.90;;;6.30;;
8986;SDS011;4529;51.360;12.474;2023-08-20T18:12:19;6.27;;;5.67;;
8986;SDS011;4529;51.360;12.474;2023-08-20T18:17:23;7.00;;;6.40;;
8986;SDS011;4529;51.360;12.474;2023-08-20T18:22:26;7.00;;;6.40;;
8986;SDS011;4529;51.360;12.474;2023-08-20T18:27:30;6.90;;;6.30;;
8986;SDS011;4529;51.360;12.474;2023-08-20T18:32:33;6.87;;;6.00;;
8986;SDS011;4529;51.360;12.474;2023-08-20T18:37:37;7.10;;;6.40;;
8986;SDS011;4529;51.360;12.474;2023-08-20T18:42:40;9.00;;;6.37;;
8986;SDS011;4529;51.360;12.474;2023-08-20T18:47:43;6.90;;;6.30;;
8986;SDS011;4529;51.360;12.474;2023-08-20T18:52:47;6.90;;;6.40;;
8986;SDS011;4529;51.360;12.474;2023-08-20T18:57:50;7.00;;;6.50;;
8986;SDS011;4529;51.360;12.474;2023-08-20T19:02:54;7.33;;;6.60;;
8986;SDS011;4529;51.360;12.474;2023-08-20T19:07:59;7.33;;;6.70;;
8986;SDS011;4529;51.360;12.474;2023-08-20T19:13:02;7.13;;;6.47;;
8986;SDS011;4529;51.360;12.474;2023-08-20T19:18:06;6.87;;;6.27;;
8986;SDS011;4529;51.360;12.474;2023-08-20T19:23:09;8.80;;;6.57;;
8986;SDS011;4529;51.360;12.474;2023-08-20T19:28:13;7.20;;;6.60;;
8986;SDS011;4529;51.360;12.474;2023-08-20T19:33:17;7.37;;;6.77;;
8986;SDS011;4529;51.360;12.474;2023-08-20T19:38:20;7.40;;;6.70;;
8986;SDS011;4529;51.360;12.474;2023-08-20T19:43:23;7.23;;;6.53;;
8986;SDS011;4529;51.360;12.474;2023-08-20T19:48:26;7.37;;;6.67;;
8986;SDS011;4529;51.360;12.474;2023-08-20T19:53:30;7.50;;;6.77;;
8986;SDS011;4529;51.360;12.474;2023-08-20T19:58:34;7.10;;;6.50;;
8986;SDS011;4529;51.360;12.474;2023-08-20T20:03:38;7.20;;;6.50;;
8986;SDS011;4529;51.360;12.474;2023-08-20T20:08:42;8.63;;;6.57;;
8986;SDS011;4529;51.360;12.474;2023-08-20T20:13:46;6.53;;;5.93;;
8986;SDS011;4529;51.360;12.474;2023-08-20T20:18:51;7.40;;;6.20;;
8986;SDS011;4529;51.360;12.474;2023-08-20T20:24:00;6.70;;;6.10;;
8986;SDS011;4529;51.360;12.474;2023-08-20T20:29:04;6.67;;;5.80;;
8986;SDS011;4529;51.360;12.474;2023-08-20T20:34:08;6.00;;;5.50;;
8986;SDS011;4529;51.360;12.474;2023-08-20T20:39:12;5.80;;;5.30;;
8986;SDS011;4529;51.360;12.474;2023-08-20T20:44:16;5.83;;;5.07;;
8986;SDS011;4529;51.360;12.474;2023-08-20T20:49:20;4.90;;;4.50;;
8986;SDS011;4529;51.360;12.474;2023-08-20T20:54:24;6.13;;;5.20;;
8986;SDS011;4529;51.360;12.474;2023-08-20T20:59:28;7.23;;;5.00;;
8986;SDS011;4529;51.360;12.474;2023-08-20T21:04:33;5.37;;;4.87;;
8986;SDS011;4529;51.360;12.474;2023-08-20T21:09:37;5.17;;;4.77;;
8986;SDS011;4529;51.360;12.474;2023-08-20T21:14:41;5.40;;;4.90;;
8986;SDS011;4529;51.360;12.474;2023-08-20T21:19:44;5.77;;;5.00;;
8986;SDS011;4529;51.360;12.474;2023-08-20T21:24:48;6.17;;;5.33;;
8986;SDS011;4529;51.360;12.474;2023-08-20T21:29:51;6.13;;;5.00;;
8986;SDS011;4529;51.360;12.474;2023-08-20T21:34:55;6.93;;;4.77;;
8986;SDS011;4529;51.360;12.474;2023-08-20T21:39:58;5.40;;;4.90;;
8986;SDS011;4529;51.360;12.474;2023-08-20T21:45:02;5.37;;;4.90;;
8986;SDS011;4529;51.360;12.474;2023-08-20T21:50:05;5.43;;;5.00;;
8986;SDS011;4529;51.360;12.474;2023-08-20T21:55:10;5.43;;;5.00;;
8986;SDS011;4529;51.360;12.474;2023-08-20T22:00:12;5.47;;;4.97;;
8986;SDS011;4529;51.360;12.474;2023-08-20T22:05:16;5.50;;;5.00;;
8986;SDS011;4529;51.360;12.474;2023-08-20T22:10:19;5.10;;;4.63;;
8986;SDS011;4529;51.360;12.474;2023-08-20T22:15:22;7.10;;;5.03;;
8986;SDS011;4529;51.360;12.474;2023-08-20T22:20:26;6.27;;;5.10;;
8986;SDS011;4529;51.360;12.474;2023-08-20T22:25:29;6.33;;;4.87;;
8986;SDS011;4529;51.360;12.474;2023-08-20T22:30:33;5.93;;;5.00;;
8986;SDS011;4529;51.360;12.474;2023-08-20T22:35:37;6.17;;;4.90;;
8986;SDS011;4529;51.360;12.474;2023-08-20T22:40:41;5.40;;;5.00;;
8986;SDS011;4529;51.360;12.474;2023-08-20T22:45:45;5.63;;;4.83;;
8986;SDS011;4529;51.360;12.474;2023-08-20T22:50:50;4.57;;;4.17;;
8986;SDS011;4529;51.360;12.474;2023-08-20T22:55:54;5.30;;;4.80;;
8986;SDS011;4529;51.360;12.474;2023-08-20T23:00:58;5.37;;;4.87;;
8986;SDS011;4529;51.360;12.474;2023-08-20T23:06:02;4.97;;;4.43;;
8986;SDS011;4529;51.360;12.474;2023-08-20T23:11:06;7.27;;;4.77;;
8986;SDS011;4529;51.360;12.474;2023-08-20T23:16:10;5.67;;;4.83;;
8986;SDS011;4529;51.360;12.474;2023-08-20T23:21:14;9.30;;;4.47;;
8986;SDS011;4529;51.360;12.474;2023-08-20T23:26:18;4.87;;;4.40;;
8986;SDS011;4529;51.360;12.474;2023-08-20T23:31:21;5.10;;;4.60;;
8986;SDS011;4529;51.360;12.474;2023-08-20T23:36:25;4.77;;;4.30;;
8986;SDS011;4529;51.360;12.474;2023-08-20T23:41:28;5.50;;;4.70;;
8986;SDS011;4529;51.360;12.474;2023-08-20T23:46:31;5.43;;;4.50;;
8986;SDS011;4529;51.360;12.474;2023-08-20T23:51:35;5.17;;;4.77;;
8986;SDS011;4529;51.360;12.474;2023-08-20T23:56:43;5.13;;;4.73;;
